Chemstar Masa — 3FGM7 — position and weather

sailwx.info

Track history (hours):
 
Tides and Currents Weather Stations Pressure Air Temp Water Temp Dewpoint Dewpoint Depression Visibility Wind Speed Wind Dir Waves Ship Positions

Chemstar Masa

Last reported at 2017-Apr-15 17:33 UTC. Time now 2017-Apr-26 19:24 UTC.
Position N 01°56' E 102°18'.
Warning: this ship's position is 11 days out of date.

Length 148 m; draft 10 m.

Type: Ship (hazmat cat B). MMSI: 353456000.

Date/timePositionNaut miles runAvg speedWind from/ knotsBaromVisibWave heightAir tempDewpointWater temp
2017-Apr-15 17:33N 01°56' E 102°18'313.9
2017-Apr-15 17:22N 01°55' E 102°20'514.0
2017-Apr-15 17:00N 01°53' E 102°25'713.3
2017-Apr-15 16:29N 01°50' E 102°31'813.1
2017-Apr-15 15:53N 01°47' E 102°38'5313.7
2017-Apr-15 12:03N 01°17' E 103°22'116.1
2017-Apr-15 11:57N 01°16' E 103°23'815.2
2017-Apr-15 11:25N 01°12' E 103°30'615.6
2017-Apr-15 11:00N 01°11' E 103°37'714.8
2017-Apr-15 10:31N 01°08' E 103°43'815.3
2017-Apr-15 10:00N 01°12' E 103°50'815.1
2017-Apr-15 09:31N 01°15' E 103°57'  
Track history (hours):
 
Tides and Currents Weather Stations Pressure Air Temp Water Temp Dewpoint Dewpoint Depression Visibility Wind Speed Wind Dir Waves Ship Positions

Chemstar Masa

Last reported at 2017-Apr-15 17:33 UTC. Time now 2017-Apr-26 19:24 UTC.
Position N 01°56' E 102°18'.
Warning: this ship's position is 11 days out of date.

Length 148 m; draft 10 m.

Type: Ship (hazmat cat B). MMSI: 353456000.

Date/timePositionNaut miles runAvg speedWind from/ knotsBaromVisibWave heightAir tempDewpointWater temp
2017-Apr-15 17:33N 01°56' E 102°18'313.9
2017-Apr-15 17:22N 01°55' E 102°20'514.0
2017-Apr-15 17:00N 01°53' E 102°25'713.3
2017-Apr-15 16:29N 01°50' E 102°31'813.1
2017-Apr-15 15:53N 01°47' E 102°38'5313.7
2017-Apr-15 12:03N 01°17' E 103°22'116.1
2017-Apr-15 11:57N 01°16' E 103°23'815.2
2017-Apr-15 11:25N 01°12' E 103°30'615.6
2017-Apr-15 11:00N 01°11' E 103°37'714.8
2017-Apr-15 10:31N 01°08' E 103°43'815.3
2017-Apr-15 10:00N 01°12' E 103°50'815.1
2017-Apr-15 09:31N 01°15' E 103°57'  

Dump ship's entire track history